createdAt,value
2019-04-23T00:01:07.845Z,99578.33
2019-04-23T00:03:28.736Z,99573.98
2019-04-23T00:06:06.688Z,99571.05
2019-04-23T00:08:36.475Z,99563.81
2019-04-23T00:11:08.790Z,99563.30
2019-04-23T00:13:39.255Z,99562.61
2019-04-23T00:21:26.625Z,99543.58
2019-04-23T00:24:01.483Z,99549.52
2019-04-23T00:28:58.925Z,99537.64
2019-04-23T00:31:29.565Z,99536.94
2019-04-23T00:33:57.271Z,99536.34
2019-04-23T00:36:32.073Z,99529.32
2019-04-23T00:38:54.379Z,99531.98
2019-04-23T00:46:27.934Z,99518.43
2019-04-23T00:49:05.859Z,99525.45
2019-04-23T00:51:30.269Z,99526.44
2019-04-23T00:54:02.247Z,99523.03
2019-04-23T00:56:42.043Z,99520.02
2019-04-23T00:59:00.751Z,99521.95
2019-04-23T01:04:17.339Z,99513.95
2019-04-23T01:06:30.727Z,99510.72
2019-04-23T01:09:03.858Z,99512.18
2019-04-23T01:11:35.715Z,99514.34
2019-04-23T01:14:08.171Z,99511.80
2019-04-23T01:16:32.843Z,99510.59
2019-04-23T01:19:12.217Z,99512.44
2019-04-23T01:24:29.712Z,99502.97
2019-04-23T01:27:53.088Z,99499.09
2019-04-23T01:30:19.823Z,99495.48
2019-04-23T01:32:51.820Z,99487.25
2019-04-23T01:35:18.931Z,99487.38
2019-04-23T01:37:47.768Z,99481.44
2019-04-23T01:40:27.411Z,99487.73
2019-04-23T01:42:49.287Z,99486.52
2019-04-23T01:45:24.584Z,99488.49
2019-04-23T01:47:58.335Z,99488.11
2019-04-23T01:50:27.730Z,99485.95
2019-04-23T01:53:00.793Z,99485.70
2019-04-23T01:55:28.029Z,99487.67
2019-04-23T01:58:18.972Z,99490.33
2019-04-23T02:00:30.610Z,99492.74
2019-04-23T02:05:39.712Z,99479.19
2019-04-23T02:08:03.539Z,99480.65
2019-04-23T02:10:51.253Z,99474.97
2019-04-23T02:13:01.799Z,99479.91
2019-04-23T02:15:36.290Z,99474.23
2019-04-23T02:18:07.973Z,99474.33
2019-04-23T02:20:43.018Z,99473.38
2019-04-23T02:23:38.899Z,99467.31
2019-04-23T02:26:04.781Z,99463.44
2019-04-23T02:28:39.184Z,99458.36
2019-04-23T02:36:08.316Z,99451.09
2019-04-23T02:41:19.841Z,99444.67
2019-04-23T02:43:44.260Z,99438.02
2019-04-23T02:46:09.908Z,99441.28
2019-04-23T02:48:52.484Z,99443.00
2019-04-23T02:51:21.647Z,99428.59
2019-04-23T02:56:34.730Z,99437.31
2019-04-23T02:58:57.696Z,99427.98
2019-04-23T03:06:29.963Z,99421.56
2019-04-23T03:11:43.199Z,99413.83
2019-04-23T03:20:01.526Z,99409.34
2019-04-23T03:22:44.544Z,99406.33
2019-04-23T03:27:50.984Z,99390.59
2019-04-23T03:30:52.469Z,99385.39
2019-04-23T03:35:09.525Z,99373.17
2019-04-23T03:38:08.293Z,99368.83
2019-04-23T03:40:19.304Z,99368.95
2019-04-23T03:43:14.491Z,99364.23
2019-04-23T03:48:08.012Z,99360.83
2019-04-23T03:50:43.586Z,99365.34
2019-04-23T03:53:20.815Z,99367.02
2019-04-23T03:55:37.104Z,99363.15
2019-04-23T03:58:15.983Z,99364.61
2019-04-23T04:00:37.475Z,99362.55
2019-04-23T04:08:16.117Z,99364.00
2019-04-23T04:10:44.735Z,99357.47
2019-04-23T04:13:15.927Z,99361.59
2019-04-23T04:21:01.135Z,99358.70
2019-04-23T04:23:24.237Z,99363.17
2019-04-23T04:25:49.941Z,99358.48
2019-04-23T04:28:17.614Z,99353.75
2019-04-23T04:30:54.369Z,99352.89
2019-04-23T04:38:42.441Z,99357.27
2019-04-23T04:46:05.324Z,99365.25
2019-04-23T04:48:30.550Z,99353.77
2019-04-23T04:51:00.338Z,99358.25
2019-04-23T04:56:07.578Z,99355.70
2019-04-23T04:58:32.603Z,99357.52
2019-04-23T05:08:37.223Z,99344.32
2019-04-23T05:11:13.004Z,99343.50
2019-04-23T05:13:41.291Z,99341.66
2019-04-23T05:16:07.677Z,99338.05
2019-04-23T05:21:43.848Z,99341.19
2019-04-23T05:23:50.486Z,99338.39
2019-04-23T05:26:25.182Z,99342.04
2019-04-23T05:31:19.026Z,99334.15
2019-04-23T05:33:57.214Z,99331.84
2019-04-23T05:41:36.862Z,99336.94
2019-04-23T05:43:57.254Z,99333.44
2019-04-23T05:46:33.133Z,99330.55
2019-04-23T05:51:27.919Z,99325.25
2019-04-23T05:53:58.314Z,99322.31
2019-04-23T05:56:30.812Z,99321.84
2019-04-23T05:59:06.670Z,99329.72
2019-04-23T06:01:49.277Z,99321.36
2019-04-23T06:04:11.724Z,99317.69
2019-04-23T06:09:09.168Z,99323.94
2019-04-23T06:11:45.223Z,99320.17
2019-04-23T06:21:47.480Z,99306.98
2019-04-23T06:24:19.642Z,99303.47
2019-04-23T06:29:19.418Z,99304.20
2019-04-23T06:31:46.006Z,99310.97
2019-04-23T06:34:16.644Z,99294.63
2019-04-23T06:39:06.686Z,99287.97
2019-04-23T06:41:44.841Z,99286.11
2019-04-23T06:44:30.781Z,99274.72
2019-04-23T06:47:05.742Z,99286.45
2019-04-23T06:49:30.517Z,99273.88
2019-04-23T06:54:37.877Z,99269.16
2019-04-23T06:57:10.240Z,99259.23
2019-04-23T07:00:29.502Z,99268.78
2019-04-23T07:02:06.229Z,99256.19
2019-04-23T07:04:34.323Z,99258.38
2019-04-23T07:07:45.202Z,99266.24
2019-04-23T07:09:26.299Z,99257.09
2019-04-23T07:12:07.205Z,99258.89
2019-04-23T07:14:44.081Z,99248.62
2019-04-23T07:17:05.361Z,99249.73
2019-04-23T07:22:12.961Z,99252.14
2019-04-23T07:24:41.951Z,99256.95
2019-04-23T07:27:11.754Z,99253.44
2019-04-23T07:29:41.713Z,99241.06
2019-04-23T07:32:29.115Z,99230.70
2019-04-23T07:34:51.199Z,99240.23
2019-04-23T07:37:15.457Z,99233.73
2019-04-23T07:40:22.992Z,99236.39
2019-04-23T07:42:51.283Z,99225.20
2019-04-23T07:45:36.058Z,99228.44
2019-04-23T07:50:42.451Z,99223.72
2019-04-23T07:53:18.891Z,99218.13
2019-04-23T08:08:15.665Z,99196.30
2019-04-23T08:11:16.102Z,99184.63
2019-04-23T08:13:33.647Z,99188.70
2019-04-23T08:15:57.913Z,99190.97
2019-04-23T08:18:29.653Z,99190.48
2019-04-23T08:20:55.599Z,99186.97
2019-04-23T08:23:51.573Z,99182.69
2019-04-23T08:29:03.616Z,99174.41
2019-04-23T08:31:41.482Z,99173.86
2019-04-23T08:34:27.327Z,99171.81
2019-04-23T08:36:34.226Z,99171.33
2019-04-23T08:39:02.098Z,99164.45
2019-04-23T08:41:49.982Z,99159.33
2019-04-23T08:44:16.826Z,99162.58
2019-04-23T08:49:29.392Z,99162.91
2019-04-23T08:52:00.602Z,99159.33
2019-04-23T08:54:42.997Z,99145.88
2019-04-23T08:57:05.161Z,99144.12
2019-04-23T09:02:18.304Z,99144.73
2019-04-23T09:07:15.591Z,99133.78
2019-04-23T09:09:45.572Z,99127.89
2019-04-23T09:14:38.619Z,99126.98
2019-04-23T09:17:11.351Z,99120.11
2019-04-23T09:19:42.862Z,99121.65
2019-04-23T09:22:14.590Z,99119.84
2019-04-23T09:24:44.827Z,99117.31
2019-04-23T09:27:16.307Z,99102.74
2019-04-23T09:29:45.696Z,99099.48
2019-04-23T09:32:26.648Z,99097.38
2019-04-23T09:35:30.924Z,99092.09
2019-04-23T09:41:03.055Z,99089.00
2019-04-23T09:43:29.592Z,99082.19
2019-04-23T09:46:06.466Z,99079.09
2019-04-23T09:48:48.584Z,99072.61
2019-04-23T09:51:07.852Z,99068.69
2019-04-23T09:53:33.897Z,99066.06
2019-04-23T09:56:06.874Z,99055.27
2019-04-23T09:58:35.792Z,99069.34
2019-04-23T10:03:41.690Z,99066.28
2019-04-23T10:06:06.258Z,99062.47
2019-04-23T10:08:35.661Z,99053.67
2019-04-23T10:10:59.790Z,99061.84
2019-04-23T10:13:29.686Z,99048.74
2019-04-23T10:16:00.111Z,99053.20
2019-04-23T10:18:30.925Z,99044.45
2019-04-23T10:21:01.385Z,99046.05
2019-04-23T10:23:31.537Z,99041.07
2019-04-23T10:26:01.844Z,99032.45
2019-04-23T10:28:40.290Z,99038.88
2019-04-23T10:31:09.621Z,99028.96
2019-04-23T10:33:39.948Z,99027.72
2019-04-23T10:36:13.068Z,99020.02
2019-04-23T10:38:41.585Z,99011.95
2019-04-23T10:41:11.903Z,99009.80
2019-04-23T10:43:44.397Z,99010.01
2019-04-23T10:47:08.166Z,99015.23
2019-04-23T10:49:53.566Z,99010.34
2019-04-23T10:54:41.259Z,99005.33
2019-04-23T11:07:28.565Z,99010.47
2019-04-23T11:13:17.737Z,99022.69
2019-04-23T11:15:26.694Z,99016.00
2019-04-23T11:20:36.908Z,99001.28
2019-04-23T11:27:52.408Z,98998.91
2019-04-23T11:33:04.985Z,98996.38
2019-04-23T11:35:31.307Z,98983.52
2019-04-23T11:38:24.863Z,98991.12
2019-04-23T11:42:57.656Z,98985.15
2019-04-23T11:45:38.772Z,98982.14
2019-04-23T11:52:56.039Z,98979.20
2019-04-23T11:55:39.211Z,98987.52
2019-04-23T12:00:42.739Z,98974.59
2019-04-23T12:03:02.705Z,98967.90
2019-04-23T12:06:15.329Z,98968.30
2019-04-23T12:09:07.541Z,98979.54
2019-04-23T12:12:31.191Z,98974.59
2019-04-23T12:14:37.282Z,98978.14
2019-04-23T12:19:52.931Z,98969.63
2019-04-23T12:22:15.192Z,98963.09
2019-04-23T12:25:00.137Z,98959.61
2019-04-23T12:27:06.172Z,98951.59
2019-04-23T12:29:42.340Z,98960.67
2019-04-23T12:42:57.055Z,98940.80
2019-04-23T12:50:48.733Z,98927.09
2019-04-23T12:55:35.866Z,98925.18
2019-04-23T12:57:52.172Z,98919.52
2019-04-23T13:02:50.931Z,98911.31
2019-04-23T13:05:31.184Z,98900.39
2019-04-23T13:07:55.527Z,98907.78
2019-04-23T13:13:11.651Z,98898.08
2019-04-23T13:18:15.096Z,98887.25
2019-04-23T13:20:27.576Z,98886.15
2019-04-23T13:23:16.496Z,98874.62
2019-04-23T13:25:52.825Z,98876.64
2019-04-23T13:30:54.280Z,98874.30
2019-04-23T13:33:30.718Z,98870.30
2019-04-23T13:38:28.606Z,98872.30
2019-04-23T13:40:57.129Z,98868.80
2019-04-23T13:43:31.806Z,98865.45
2019-04-23T13:48:18.360Z,98869.02
2019-04-23T13:53:37.838Z,98854.75
2019-04-23T13:55:53.044Z,98856.25
2019-04-23T14:03:39.700Z,98851.91
2019-04-23T14:06:19.867Z,98850.58
2019-04-23T14:11:22.066Z,98835.67
2019-04-23T14:13:56.259Z,98837.17
2019-04-23T14:16:21.266Z,98833.52
2019-04-23T14:21:20.381Z,98839.70
2019-04-23T14:36:39.315Z,98843.36
2019-04-23T14:38:49.475Z,98839.49
2019-04-23T14:41:33.902Z,98844.67
2019-04-23T14:48:58.299Z,98838.44
2019-04-23T14:51:46.766Z,98828.84
2019-04-23T14:53:53.817Z,98828.70
2019-04-23T15:01:36.182Z,98820.46
2019-04-23T15:04:02.017Z,98827.00
2019-04-23T15:09:19.675Z,98835.74
2019-04-23T15:12:06.136Z,98827.17
2019-04-23T15:14:29.522Z,98820.95
2019-04-23T15:19:40.390Z,98820.64
2019-04-23T15:22:09.979Z,98815.58
2019-04-23T15:29:24.888Z,98805.34
2019-04-23T15:32:13.958Z,98796.44
2019-04-23T15:34:32.737Z,98793.75
2019-04-23T15:44:41.795Z,98794.88
2019-04-23T15:47:19.973Z,98787.80
2019-04-23T15:49:49.230Z,98785.81
2019-04-23T15:52:10.603Z,98779.45
2019-04-23T15:54:48.335Z,98789.52
2019-04-23T15:57:28.906Z,98786.98
2019-04-23T15:59:47.905Z,98779.77
2019-04-23T16:01:49.433Z,98784.47
2019-04-23T16:04:20.116Z,98781.43
2019-04-23T16:06:49.818Z,98778.22
2019-04-23T16:09:46.197Z,98775.88
2019-04-23T16:12:10.213Z,98774.86
2019-04-23T16:15:11.448Z,98773.34
2019-04-23T16:22:51.091Z,98780.87
2019-04-23T16:25:12.951Z,98783.73
2019-04-23T16:27:48.994Z,98781.02
2019-04-23T16:35:51.682Z,98784.55
2019-04-23T16:40:54.667Z,98778.50
2019-04-23T16:45:53.569Z,98795.45
2019-04-23T16:48:33.865Z,98784.06
2019-04-23T16:53:31.516Z,98783.24
2019-04-23T16:55:59.819Z,98778.72
2019-04-23T17:03:32.000Z,98779.21
2019-04-23T17:06:08.568Z,98780.41
2019-04-23T17:08:47.852Z,98777.40
2019-04-23T17:11:09.657Z,98782.63
2019-04-23T17:16:06.775Z,98783.13
2019-04-23T17:18:31.875Z,98780.14
2019-04-23T17:20:56.320Z,98776.29
2019-04-23T17:23:38.837Z,98772.43
2019-04-23T17:26:07.090Z,98775.11
2019-04-23T17:28:29.553Z,98778.30
2019-04-23T17:31:27.954Z,98775.95
2019-04-23T17:33:44.661Z,98780.01
2019-04-23T17:39:50.068Z,98784.09
2019-04-23T17:45:03.611Z,98791.50
2019-04-23T17:47:28.534Z,98782.79
2019-04-23T17:50:10.750Z,98784.48
2019-04-23T17:52:35.122Z,98787.83
2019-04-23T17:55:09.271Z,98790.53
2019-04-23T17:57:36.993Z,98790.38
2019-04-23T18:05:14.711Z,98786.88
2019-04-23T18:12:46.939Z,98789.37
2019-04-23T18:15:13.067Z,98788.70
2019-04-23T18:17:45.253Z,98789.88
2019-04-23T18:20:19.613Z,98787.17
2019-04-23T18:22:55.322Z,98798.77
2019-04-23T18:25:26.196Z,98794.89
2019-04-23T18:31:06.216Z,98799.92
2019-04-23T18:36:05.299Z,98801.45
2019-04-23T18:41:07.082Z,98810.15
2019-04-23T18:43:34.202Z,98805.12
2019-04-23T18:48:48.716Z,98806.27
2019-04-23T18:56:12.402Z,98805.76
2019-04-23T18:58:54.666Z,98807.62
2019-04-23T19:01:13.947Z,98810.95
2019-04-23T19:03:58.348Z,98809.30
2019-04-23T19:06:32.717Z,98809.27
2019-04-23T19:09:16.360Z,98810.77
2019-04-23T19:12:07.157Z,98809.59
2019-04-23T19:14:35.199Z,98810.94
2019-04-23T19:17:29.096Z,98818.29
2019-04-23T19:19:35.105Z,98821.66
2019-04-23T19:22:15.011Z,98820.61
2019-04-23T19:24:34.572Z,98820.61
2019-04-23T19:27:12.321Z,98819.59
2019-04-23T19:29:39.631Z,98820.94
2019-04-23T19:32:06.643Z,98817.23
2019-04-23T19:39:36.662Z,98815.54
2019-04-23T19:44:43.871Z,98819.87
2019-04-23T19:47:09.424Z,98822.72
2019-04-23T19:49:37.083Z,98825.56
2019-04-23T19:52:03.516Z,98822.20
2019-04-23T19:57:19.269Z,98822.84
2019-04-23T20:02:45.163Z,98820.49
2019-04-23T20:12:14.004Z,98820.32
2019-04-23T20:14:47.377Z,98819.63
2019-04-23T20:22:27.389Z,98820.97
2019-04-23T20:25:18.613Z,98820.27
2019-04-23T20:27:26.469Z,98819.78
2019-04-23T20:33:00.592Z,98818.41
2019-04-23T20:35:16.627Z,98821.41
2019-04-23T20:38:18.987Z,98817.06
2019-04-23T20:40:30.339Z,98818.56
2019-04-23T20:42:52.615Z,98815.19
2019-04-23T20:45:33.840Z,98818.70
2019-04-23T20:47:57.500Z,98811.85
2019-04-23T20:50:27.656Z,98819.04
2019-04-23T20:52:51.818Z,98820.20
2019-04-23T20:55:38.948Z,98816.84
2019-04-23T20:58:09.730Z,98813.31
2019-04-23T21:01:00.405Z,98819.19
2019-04-23T21:03:47.335Z,98818.98
2019-04-23T21:06:01.866Z,98815.65
2019-04-23T21:08:45.101Z,98816.30
2019-04-23T21:14:01.761Z,98816.94
2019-04-23T21:16:13.129Z,98817.95
2019-04-23T21:18:41.193Z,98815.92
2019-04-23T21:23:38.741Z,98813.77
2019-04-23T21:26:08.494Z,98817.94
2019-04-23T21:28:40.134Z,98814.91
2019-04-23T21:33:46.022Z,98816.03
2019-04-23T21:36:44.451Z,98804.48
2019-04-23T21:40:14.085Z,98809.02
2019-04-23T21:45:11.038Z,98803.77
2019-04-23T21:47:51.800Z,98804.78
2019-04-23T21:50:19.486Z,98805.27
2019-04-23T21:52:41.096Z,98808.47
2019-04-23T21:55:11.263Z,98810.78
2019-04-23T21:57:53.586Z,98810.78
2019-04-23T22:00:39.316Z,98806.44
2019-04-23T22:05:26.881Z,98808.78
2019-04-23T22:07:57.797Z,98808.09
2019-04-23T22:10:17.797Z,98805.08
2019-04-23T22:13:05.270Z,98798.70
2019-04-23T22:15:22.247Z,98804.22
2019-04-23T22:20:25.998Z,98800.00
2019-04-23T22:25:21.927Z,98798.33
2019-04-23T22:27:55.060Z,98801.00
2019-04-23T22:33:21.643Z,98801.81
2019-04-23T22:35:57.750Z,98800.30
2019-04-23T22:38:18.845Z,98803.98
2019-04-23T22:40:49.684Z,98797.60
2019-04-23T22:43:23.174Z,98802.28
2019-04-23T22:48:13.714Z,98797.08
2019-04-23T22:50:56.683Z,98795.09
2019-04-23T22:53:20.078Z,98795.73
2019-04-23T22:58:22.967Z,98794.88
2019-04-23T23:01:13.605Z,98796.89
2019-04-23T23:03:36.486Z,98797.71
2019-04-23T23:08:50.313Z,98798.55
2019-04-23T23:11:22.812Z,98795.38
2019-04-23T23:14:10.101Z,98794.69
2019-04-23T23:16:28.874Z,98796.18
2019-04-23T23:19:03.921Z,98791.47
2019-04-23T23:21:30.886Z,98787.98
2019-04-23T23:24:06.298Z,98792.48
2019-04-23T23:26:48.304Z,98788.14
2019-04-23T23:29:02.327Z,98796.16
2019-04-23T23:31:37.179Z,98793.28
2019-04-23T23:36:40.453Z,98799.48
2019-04-23T23:41:46.910Z,98795.78
2019-04-23T23:44:29.275Z,98801.61
2019-04-23T23:49:13.601Z,98801.44
2019-04-23T23:51:46.573Z,98801.11
2019-04-23T23:54:15.181Z,98805.94
2019-04-23T23:56:49.766Z,98802.08
2019-04-23T23:59:17.985Z,98801.90
